createdAt,value
2023-02-23T00:01:31.990Z,96.99
2023-02-23T00:04:07.239Z,97.34
2023-02-23T00:06:40.562Z,97.39
2023-02-23T00:09:23.093Z,96.86
2023-02-23T00:11:58.583Z,97.33
2023-02-23T00:14:32.409Z,97.41
2023-02-23T00:17:05.652Z,97.53
2023-02-23T00:19:41.007Z,97.59
2023-02-23T00:22:14.202Z,97.53
2023-02-23T00:24:48.240Z,97.70
2023-02-23T00:27:21.984Z,97.89
2023-02-23T00:29:55.268Z,98.01
2023-02-23T00:32:28.746Z,97.95
2023-02-23T00:35:03.509Z,97.58
2023-02-23T00:37:37.718Z,98.45
2023-02-23T00:40:14.766Z,98.12
2023-02-23T00:42:52.228Z,98.48
2023-02-23T00:45:25.538Z,98.11
2023-02-23T00:47:59.011Z,98.05
2023-02-23T00:50:34.867Z,97.15
2023-02-23T00:53:09.413Z,97.09
2023-02-23T00:55:44.452Z,97.11
2023-02-23T00:58:17.653Z,97.46
2023-02-23T01:00:50.872Z,97.85
2023-02-23T01:03:24.280Z,97.72
2023-02-23T01:06:05.339Z,97.71
2023-02-23T01:08:42.636Z,97.55
2023-02-23T01:11:19.131Z,97.56
2023-02-23T01:13:56.838Z,98.36
2023-02-23T01:16:33.137Z,98.58
2023-02-23T01:19:06.863Z,98.05
2023-02-23T01:21:43.838Z,97.92
2023-02-23T01:24:17.123Z,97.58
2023-02-23T01:26:50.437Z,97.66
2023-02-23T01:29:23.797Z,97.29
2023-02-23T01:31:56.986Z,96.63
2023-02-23T01:34:30.162Z,96.36
2023-02-23T01:37:05.005Z,97.61
2023-02-23T01:39:38.217Z,97.66
2023-02-23T01:42:14.731Z,98.51
2023-02-23T01:45:24.855Z,98.41
2023-02-23T01:48:03.876Z,98.35
2023-02-23T01:50:50.396Z,98.17
2023-02-23T01:53:26.859Z,97.89
2023-02-23T01:56:11.280Z,97.62
2023-02-23T01:58:48.894Z,97.28
2023-02-23T02:01:22.694Z,97.78
2023-02-23T02:03:59.056Z,96.73
2023-02-23T02:06:34.124Z,97.15
2023-02-23T02:09:17.013Z,97.25
2023-02-23T02:11:54.275Z,97.50
2023-02-23T02:14:32.013Z,97.57
2023-02-23T02:17:23.553Z,98.34
2023-02-23T02:21:04.858Z,98.11
2023-02-23T02:24:52.372Z,98.49
2023-02-23T02:27:52.732Z,98.35
2023-02-23T02:30:47.039Z,98.18
2023-02-23T02:34:26.496Z,99.02
2023-02-23T02:37:19.449Z,98.39
2023-02-23T02:40:16.327Z,98.47
2023-02-23T02:43:09.244Z,97.88
2023-02-23T02:45:50.164Z,97.69
2023-02-23T02:48:34.690Z,98.16
2023-02-23T02:51:18.481Z,98.59
2023-02-23T02:54:06.853Z,98.67
2023-02-23T02:56:44.400Z,99.00
2023-02-23T02:59:38.092Z,100.00
2023-02-23T03:02:36.243Z,100.00
2023-02-23T03:05:32.953Z,100.00
2023-02-23T03:08:36.158Z,100.00
2023-02-23T03:11:32.054Z,100.00
2023-02-23T03:14:36.174Z,100.00
2023-02-23T03:17:46.365Z,100.00
2023-02-23T03:20:45.643Z,100.00
2023-02-23T03:23:42.394Z,100.00
2023-02-23T03:26:42.684Z,100.00
2023-02-23T03:29:40.640Z,100.00
2023-02-23T03:32:40.192Z,100.00
2023-02-23T03:35:40.330Z,100.00
2023-02-23T03:38:36.135Z,100.00
2023-02-23T03:41:30.146Z,100.00
2023-02-23T03:44:28.296Z,100.00
2023-02-23T03:47:20.555Z,100.00
2023-02-23T03:50:13.753Z,100.00
2023-02-23T03:53:11.444Z,100.00
2023-02-23T03:56:06.738Z,100.00
2023-02-23T03:59:01.867Z,100.00
2023-02-23T04:01:55.340Z,100.00
2023-02-23T04:04:47.727Z,100.00
2023-02-23T04:07:38.887Z,100.00
2023-02-23T04:10:30.997Z,100.00
2023-02-23T04:13:15.289Z,100.00
2023-02-23T04:15:54.404Z,100.00
2023-02-23T04:18:31.782Z,100.00
2023-02-23T04:21:06.720Z,100.00
2023-02-23T04:23:41.710Z,100.00
2023-02-23T04:26:14.985Z,100.00
2023-02-23T04:28:48.250Z,100.00
2023-02-23T04:31:25.233Z,100.00
2023-02-23T04:34:00.177Z,100.00
2023-02-23T04:36:33.310Z,100.00
2023-02-23T04:39:06.547Z,100.00
2023-02-23T04:41:39.782Z,100.00
2023-02-23T04:44:13.294Z,100.00
2023-02-23T04:46:46.670Z,100.00
2023-02-23T04:49:21.189Z,100.00
2023-02-23T04:51:54.520Z,100.00
2023-02-23T04:54:29.435Z,100.00
2023-02-23T04:57:02.546Z,100.00
2023-02-23T04:59:35.804Z,100.00
2023-02-23T05:02:09.429Z,100.00
2023-02-23T05:04:44.759Z,100.00
2023-02-23T05:07:18.055Z,100.00
2023-02-23T05:09:51.166Z,100.00
2023-02-23T05:12:24.240Z,100.00
2023-02-23T05:14:57.812Z,100.00
2023-02-23T05:17:31.274Z,100.00
2023-02-23T05:20:07.193Z,100.00
2023-02-23T05:22:40.514Z,100.00
2023-02-23T05:25:13.791Z,100.00
2023-02-23T05:27:46.978Z,100.00
2023-02-23T05:30:20.253Z,100.00
2023-02-23T05:32:53.498Z,100.00
2023-02-23T05:35:28.196Z,100.00
2023-02-23T05:38:01.316Z,100.00
2023-02-23T05:40:34.619Z,100.00
2023-02-23T05:43:08.026Z,100.00
2023-02-23T05:45:42.392Z,100.00
2023-02-23T05:48:15.627Z,100.00
2023-02-23T05:50:50.297Z,100.00
2023-02-23T05:53:23.582Z,100.00
2023-02-23T05:55:56.733Z,100.00
2023-02-23T05:58:30.524Z,100.00
2023-02-23T06:01:03.638Z,100.00
2023-02-23T06:03:37.250Z,100.00
2023-02-23T06:06:12.486Z,100.00
2023-02-23T06:08:46.388Z,100.00
2023-02-23T06:11:22.473Z,100.00
2023-02-23T06:13:55.938Z,100.00
2023-02-23T06:16:29.701Z,100.00
2023-02-23T06:19:03.086Z,100.00
2023-02-23T06:21:37.875Z,100.00
2023-02-23T06:24:12.228Z,100.00
2023-02-23T06:26:45.527Z,100.00
2023-02-23T06:29:18.973Z,100.00
2023-02-23T06:31:52.378Z,100.00
2023-02-23T06:34:25.725Z,100.00
2023-02-23T06:37:00.356Z,100.00
2023-02-23T06:39:33.929Z,100.00
2023-02-23T06:42:07.310Z,100.00
2023-02-23T06:44:40.579Z,100.00
2023-02-23T06:47:13.862Z,100.00
2023-02-23T06:49:47.789Z,100.00
2023-02-23T06:52:23.140Z,100.00
2023-02-23T06:54:56.759Z,100.00
2023-02-23T06:57:30.034Z,100.00
2023-02-23T07:00:04.130Z,100.00
2023-02-23T07:02:37.659Z,100.00
2023-02-23T07:05:11.612Z,100.00
2023-02-23T07:07:47.456Z,100.00
2023-02-23T07:10:20.923Z,100.00
2023-02-23T07:12:55.592Z,100.00
2023-02-23T07:15:28.932Z,100.00
2023-02-23T07:18:02.054Z,100.00
2023-02-23T07:20:36.077Z,100.00
2023-02-23T07:23:10.778Z,100.00
2023-02-23T07:25:43.909Z,100.00
2023-02-23T07:28:17.056Z,100.00
2023-02-23T07:30:50.904Z,100.00
2023-02-23T07:33:24.485Z,100.00
2023-02-23T07:35:57.792Z,100.00
2023-02-23T07:38:32.619Z,100.00
2023-02-23T07:41:06.485Z,100.00
2023-02-23T07:43:39.712Z,100.00
2023-02-23T07:46:15.634Z,100.00
2023-02-23T07:48:48.982Z,100.00
2023-02-23T07:51:22.316Z,100.00
2023-02-23T07:53:56.996Z,100.00
2023-02-23T07:56:30.167Z,100.00
2023-02-23T07:59:03.448Z,100.00
2023-02-23T08:01:37.001Z,100.00
2023-02-23T08:04:10.370Z,100.00
2023-02-23T08:06:43.571Z,100.00
2023-02-23T08:09:18.139Z,100.00
2023-02-23T08:11:51.303Z,100.00
2023-02-23T08:14:25.344Z,100.00
2023-02-23T08:16:58.695Z,100.00
2023-02-23T08:19:32.203Z,100.00
2023-02-23T08:22:07.725Z,100.00
2023-02-23T08:24:43.412Z,100.00
2023-02-23T08:27:16.515Z,100.00
2023-02-23T08:29:52.549Z,100.00
2023-02-23T08:32:25.772Z,100.00
2023-02-23T08:35:01.272Z,100.00
2023-02-23T08:37:34.837Z,100.00
2023-02-23T08:40:12.303Z,100.00
2023-02-23T08:42:45.801Z,100.00
2023-02-23T08:45:20.183Z,100.00
2023-02-23T08:47:55.787Z,100.00
2023-02-23T08:50:29.133Z,100.00
2023-02-23T08:53:02.497Z,100.00
2023-02-23T08:55:39.444Z,100.00
2023-02-23T08:58:12.992Z,100.00
2023-02-23T09:00:46.511Z,100.00
2023-02-23T09:03:20.123Z,100.00
2023-02-23T09:05:53.737Z,100.00
2023-02-23T09:08:27.086Z,100.00
2023-02-23T09:11:01.937Z,100.00
2023-02-23T09:13:36.216Z,100.00
2023-02-23T09:16:09.889Z,100.00
2023-02-23T09:18:43.790Z,100.00
2023-02-23T09:21:22.367Z,100.00
2023-02-23T09:23:56.330Z,100.00
2023-02-23T09:26:32.617Z,100.00
2023-02-23T09:29:05.914Z,100.00
2023-02-23T09:31:43.754Z,100.00
2023-02-23T09:34:17.241Z,100.00
2023-02-23T09:36:51.460Z,100.00
2023-02-23T09:39:37.324Z,100.00
2023-02-23T09:42:35.634Z,100.00
2023-02-23T09:45:20.487Z,100.00
2023-02-23T09:48:08.505Z,100.00
2023-02-23T09:50:45.691Z,100.00
2023-02-23T09:53:41.074Z,100.00
2023-02-23T09:56:22.569Z,100.00
2023-02-23T09:58:57.470Z,100.00
2023-02-23T10:01:57.483Z,100.00
2023-02-23T10:04:33.680Z,100.00
2023-02-23T10:07:14.747Z,100.00
2023-02-23T10:10:05.149Z,100.00
2023-02-23T10:12:50.911Z,99.54
2023-02-23T10:15:35.685Z,99.28
2023-02-23T10:18:20.598Z,99.56
2023-02-23T10:21:01.121Z,99.21
2023-02-23T10:23:41.003Z,98.09
2023-02-23T10:26:20.230Z,97.87
2023-02-23T10:28:55.987Z,96.43
2023-02-23T10:31:39.541Z,96.08
2023-02-23T10:34:17.887Z,95.47
2023-02-23T10:36:59.800Z,93.90
2023-02-23T10:39:34.744Z,93.37
2023-02-23T10:42:15.604Z,92.42
2023-02-23T10:44:50.110Z,92.03
2023-02-23T10:47:28.610Z,90.12
2023-02-23T10:50:03.401Z,90.12
2023-02-23T10:52:42.976Z,89.83
2023-02-23T10:55:27.725Z,89.30
2023-02-23T10:58:16.922Z,86.96
2023-02-23T11:00:55.584Z,87.78
2023-02-23T11:03:35.535Z,86.98
2023-02-23T11:06:28.997Z,86.60
2023-02-23T11:09:41.300Z,87.30
2023-02-23T11:12:23.139Z,85.44
2023-02-23T11:14:58.832Z,83.14
2023-02-23T11:17:35.751Z,82.99
2023-02-23T11:20:27.616Z,83.27
2023-02-23T11:23:09.590Z,84.17
2023-02-23T11:25:49.420Z,83.47
2023-02-23T11:28:27.817Z,82.23
2023-02-23T11:31:06.017Z,81.15
2023-02-23T11:33:41.489Z,80.17
2023-02-23T11:36:27.792Z,80.16
2023-02-23T11:39:23.640Z,80.25
2023-02-23T11:42:17.524Z,80.23
2023-02-23T11:45:04.998Z,79.37
2023-02-23T11:47:42.354Z,78.80
2023-02-23T11:50:29.001Z,79.31
2023-02-23T11:53:06.875Z,77.76
2023-02-23T11:55:40.713Z,77.62
2023-02-23T11:58:27.013Z,75.83
2023-02-23T12:01:03.491Z,77.23
2023-02-23T12:03:37.769Z,76.94
2023-02-23T12:06:12.257Z,76.63
2023-02-23T12:08:52.566Z,76.38
2023-02-23T12:11:30.759Z,74.79
2023-02-23T12:14:09.498Z,74.72
2023-02-23T12:16:46.555Z,75.46
2023-02-23T12:19:27.211Z,75.29
2023-02-23T12:22:06.657Z,73.96
2023-02-23T12:24:46.687Z,73.04
2023-02-23T12:27:24.363Z,71.87
2023-02-23T12:30:08.949Z,72.46
2023-02-23T12:32:51.357Z,72.46
2023-02-23T12:35:31.629Z,70.79
2023-02-23T12:38:11.754Z,71.32
2023-02-23T12:40:46.926Z,70.90
2023-02-23T12:43:28.820Z,70.85
2023-02-23T12:46:11.407Z,71.62
2023-02-23T12:48:56.805Z,70.79
2023-02-23T12:51:35.965Z,70.33
2023-02-23T12:54:13.249Z,70.24
2023-02-23T12:56:57.493Z,68.98
2023-02-23T13:04:15.808Z,68.76
2023-02-23T13:06:58.720Z,68.82
2023-02-23T13:09:52.552Z,67.54
2023-02-23T13:12:39.320Z,67.02
2023-02-23T13:19:20.740Z,67.85
2023-02-23T13:24:51.167Z,67.51
2023-02-23T13:34:36.931Z,65.66
2023-02-23T13:37:13.611Z,65.98
2023-02-23T13:40:02.660Z,66.43
2023-02-23T13:42:52.525Z,65.85
2023-02-23T13:45:49.170Z,65.64
2023-02-23T13:48:37.984Z,66.07
2023-02-23T13:51:30.495Z,66.00
2023-02-23T13:54:08.416Z,63.89
2023-02-23T13:56:45.993Z,65.02
2023-02-23T13:59:21.673Z,65.02
2023-02-23T14:01:56.478Z,66.06
2023-02-23T14:04:36.259Z,64.51
2023-02-23T14:07:19.820Z,64.44
2023-02-23T14:09:57.054Z,64.83
2023-02-23T14:12:36.140Z,64.08
2023-02-23T14:15:43.492Z,65.03
2023-02-23T14:18:34.270Z,65.58
2023-02-23T14:21:24.533Z,65.64
2023-02-23T14:24:17.444Z,65.92
2023-02-23T14:27:38.826Z,66.21
2023-02-23T14:30:25.675Z,66.23
2023-02-23T14:33:21.190Z,66.55
2023-02-23T14:35:56.073Z,66.08
2023-02-23T14:38:46.916Z,67.49
2023-02-23T14:41:26.096Z,67.39
2023-02-23T14:44:03.953Z,67.35
2023-02-23T14:46:38.420Z,67.47
2023-02-23T14:49:20.749Z,67.56
2023-02-23T14:51:55.956Z,67.32
2023-02-23T14:54:34.004Z,66.88
2023-02-23T14:57:22.298Z,66.50
2023-02-23T14:59:59.482Z,66.24
2023-02-23T15:02:33.526Z,66.25
2023-02-23T15:05:17.053Z,66.20
2023-02-23T15:07:51.947Z,65.89
2023-02-23T15:10:32.512Z,67.41
2023-02-23T15:13:29.070Z,66.74
2023-02-23T15:16:07.731Z,66.77
2023-02-23T15:19:32.140Z,66.54
2023-02-23T15:22:06.817Z,66.76
2023-02-23T15:24:48.368Z,67.15
2023-02-23T15:27:26.932Z,67.40
2023-02-23T15:30:20.060Z,67.85
2023-02-23T15:33:02.664Z,68.09
2023-02-23T15:35:44.436Z,69.23
2023-02-23T15:38:42.407Z,69.52
2023-02-23T15:41:26.325Z,70.05
2023-02-23T15:44:07.136Z,69.88
2023-02-23T15:46:42.824Z,69.73
2023-02-23T15:49:17.437Z,69.25
2023-02-23T15:51:53.258Z,68.94
2023-02-23T15:54:31.971Z,68.32
2023-02-23T15:57:14.106Z,68.86
2023-02-23T15:59:49.909Z,69.28
2023-02-23T16:02:26.603Z,70.62
2023-02-23T16:05:16.026Z,69.80
2023-02-23T16:07:49.112Z,70.21
2023-02-23T16:10:25.283Z,70.59
2023-02-23T16:12:58.443Z,70.56
2023-02-23T16:15:36.805Z,70.78
2023-02-23T16:18:17.254Z,71.20
2023-02-23T16:20:56.021Z,71.47
2023-02-23T16:23:34.638Z,71.50
2023-02-23T16:26:13.715Z,72.94
2023-02-23T16:28:47.976Z,72.98
2023-02-23T16:31:28.240Z,73.71
2023-02-23T16:34:04.917Z,73.23
2023-02-23T16:36:40.232Z,73.08
2023-02-23T16:39:17.505Z,73.84
2023-02-23T16:41:51.177Z,74.80
2023-02-23T16:44:28.477Z,75.67
2023-02-23T16:47:37.314Z,76.44
2023-02-23T16:50:21.143Z,76.68
2023-02-23T16:52:54.769Z,77.19
2023-02-23T16:55:30.104Z,77.67
2023-02-23T16:58:05.019Z,77.51
2023-02-23T17:00:38.559Z,77.87
2023-02-23T17:03:20.316Z,78.65
2023-02-23T17:05:55.480Z,79.53
2023-02-23T17:08:28.603Z,79.35
2023-02-23T17:11:03.245Z,79.24
2023-02-23T17:13:37.148Z,79.38
2023-02-23T17:16:14.273Z,80.03
2023-02-23T17:18:47.484Z,80.26
2023-02-23T17:21:23.889Z,80.86
2023-02-23T17:24:03.721Z,80.85
2023-02-23T17:26:37.002Z,81.28
2023-02-23T17:29:10.117Z,81.12
2023-02-23T17:31:43.399Z,81.30
2023-02-23T17:34:16.631Z,81.86
2023-02-23T17:36:51.001Z,82.48
2023-02-23T17:39:28.006Z,82.89
2023-02-23T17:42:01.064Z,82.86
2023-02-23T17:44:34.137Z,82.66
2023-02-23T17:47:07.398Z,83.04
2023-02-23T17:49:40.731Z,83.28
2023-02-23T17:52:15.126Z,83.68
2023-02-23T17:54:48.714Z,84.11
2023-02-23T17:57:24.139Z,84.72
2023-02-23T17:59:58.355Z,84.69
2023-02-23T18:02:31.748Z,85.64
2023-02-23T18:05:05.252Z,86.38
2023-02-23T18:07:40.497Z,86.55
2023-02-23T18:10:14.779Z,86.87
2023-02-23T18:12:47.869Z,87.37
2023-02-23T18:15:21.581Z,87.42
2023-02-23T18:17:57.430Z,87.52
2023-02-23T18:20:30.619Z,88.04
2023-02-23T18:23:04.970Z,88.23
2023-02-23T18:25:38.021Z,87.88
2023-02-23T18:28:12.711Z,88.09
2023-02-23T18:30:46.904Z,88.56
2023-02-23T18:33:20.013Z,88.55
2023-02-23T18:35:53.096Z,88.89
2023-02-23T18:38:27.505Z,89.37
2023-02-23T18:41:00.434Z,88.91
2023-02-23T18:43:33.436Z,90.12
2023-02-23T18:46:07.770Z,90.00
2023-02-23T18:48:42.064Z,90.35
2023-02-23T18:51:15.041Z,90.03
2023-02-23T18:53:50.534Z,90.71
2023-02-23T18:56:28.085Z,90.70
2023-02-23T18:59:02.390Z,90.61
2023-02-23T19:01:37.528Z,90.74
2023-02-23T19:04:11.119Z,91.97
2023-02-23T19:06:46.042Z,91.68
2023-02-23T19:09:21.343Z,91.74
2023-02-23T19:11:54.577Z,92.17
2023-02-23T19:14:48.279Z,92.25
2023-02-23T19:17:22.175Z,92.32
2023-02-23T19:19:56.076Z,92.57
2023-02-23T19:22:30.505Z,92.43
2023-02-23T19:25:05.682Z,92.69
2023-02-23T19:27:39.360Z,93.41
2023-02-23T19:30:14.897Z,93.77
2023-02-23T19:32:48.141Z,93.66
2023-02-23T19:35:21.303Z,94.51
2023-02-23T19:37:55.711Z,94.45
2023-02-23T19:40:30.828Z,94.66
2023-02-23T19:43:04.326Z,94.88
2023-02-23T19:45:37.423Z,94.71
2023-02-23T19:48:10.409Z,95.42
2023-02-23T19:50:47.967Z,95.36
2023-02-23T19:53:21.038Z,95.44
2023-02-23T19:56:01.854Z,95.09
2023-02-23T19:58:35.728Z,95.46
2023-02-23T20:01:11.904Z,95.45
2023-02-23T20:03:47.398Z,95.53
2023-02-23T20:06:20.410Z,96.38
2023-02-23T20:08:55.060Z,96.30
2023-02-23T20:11:31.548Z,95.49
2023-02-23T20:14:05.748Z,95.67
2023-02-23T20:16:38.999Z,95.24
2023-02-23T20:19:12.011Z,96.33
2023-02-23T20:21:45.801Z,95.50
2023-02-23T20:24:19.750Z,96.35
2023-02-23T20:26:58.139Z,95.70
2023-02-23T20:29:31.321Z,96.04
2023-02-23T20:32:10.067Z,96.71
2023-02-23T20:34:45.409Z,96.88
2023-02-23T20:37:18.433Z,96.22
2023-02-23T20:39:51.372Z,97.38
2023-02-23T20:42:28.225Z,97.53
2023-02-23T20:45:01.200Z,99.32
2023-02-23T20:47:34.236Z,100.00
2023-02-23T20:50:10.712Z,100.00
2023-02-23T20:52:45.849Z,100.00
2023-02-23T20:55:19.752Z,100.00
2023-02-23T20:57:55.370Z,100.00
2023-02-23T21:00:29.472Z,100.00
2023-02-23T21:03:05.101Z,100.00
2023-02-23T21:05:41.757Z,100.00
2023-02-23T21:08:14.860Z,100.00
2023-02-23T21:10:50.178Z,100.00
2023-02-23T21:13:26.495Z,100.00
2023-02-23T21:16:01.281Z,100.00
2023-02-23T21:18:34.618Z,100.00
2023-02-23T21:21:09.669Z,100.00
2023-02-23T21:23:44.802Z,100.00
2023-02-23T21:26:21.526Z,100.00
2023-02-23T21:28:55.946Z,100.00
2023-02-23T21:31:29.125Z,100.00
2023-02-23T21:34:05.460Z,100.00
2023-02-23T21:36:38.987Z,100.00
2023-02-23T21:39:12.218Z,100.00
2023-02-23T21:41:45.206Z,100.00
2023-02-23T21:44:19.609Z,100.00
2023-02-23T21:46:52.698Z,100.00
2023-02-23T21:49:25.737Z,100.00
2023-02-23T21:51:58.828Z,100.00
2023-02-23T21:54:36.516Z,100.00
2023-02-23T21:57:11.013Z,100.00
2023-02-23T21:59:45.390Z,100.00
2023-02-23T22:02:19.384Z,100.00
2023-02-23T22:04:52.682Z,100.00
2023-02-23T22:07:29.301Z,100.00
2023-02-23T22:10:02.352Z,100.00
2023-02-23T22:12:35.398Z,100.00
2023-02-23T22:15:11.044Z,100.00
2023-02-23T22:17:44.677Z,100.00
2023-02-23T22:20:20.068Z,100.00
2023-02-23T22:22:53.161Z,100.00
2023-02-23T22:25:26.611Z,100.00
2023-02-23T22:27:59.636Z,100.00
2023-02-23T22:30:34.677Z,100.00
2023-02-23T22:33:07.749Z,100.00
2023-02-23T22:35:41.142Z,100.00
2023-02-23T22:38:14.747Z,100.00
2023-02-23T22:40:48.413Z,100.00
2023-02-23T22:43:22.139Z,100.00
2023-02-23T22:45:58.819Z,100.00
2023-02-23T22:48:32.477Z,100.00
2023-02-23T22:51:08.033Z,100.00
2023-02-23T22:53:41.996Z,100.00
2023-02-23T22:56:16.693Z,100.00
2023-02-23T22:58:53.765Z,100.00
2023-02-23T23:01:30.742Z,100.00
2023-02-23T23:04:10.077Z,100.00
2023-02-23T23:06:44.163Z,100.00
2023-02-23T23:09:18.455Z,100.00
2023-02-23T23:11:51.797Z,100.00
2023-02-23T23:14:25.449Z,100.00
2023-02-23T23:17:00.153Z,100.00
2023-02-23T23:19:38.880Z,100.00
2023-02-23T23:22:13.987Z,100.00
2023-02-23T23:24:48.959Z,100.00
2023-02-23T23:27:22.069Z,100.00
2023-02-23T23:29:55.434Z,100.00
2023-02-23T23:32:30.203Z,100.00
2023-02-23T23:35:04.073Z,100.00
2023-02-23T23:37:39.697Z,100.00
2023-02-23T23:40:17.252Z,100.00
2023-02-23T23:42:50.236Z,100.00
2023-02-23T23:45:25.791Z,100.00
2023-02-23T23:48:00.143Z,100.00
2023-02-23T23:50:33.156Z,100.00
2023-02-23T23:53:06.181Z,100.00
2023-02-23T23:55:39.223Z,100.00
2023-02-23T23:58:13.739Z,100.00
